sensor_id;sensor_type;location;lat;lon;timestamp;pressure;altitude;pressure_sealevel;temperature;humidity
20983;BME280;10650;51.528;6.748;2023-02-20T00:01:38;102423.84;;;7.68;82.62
20983;BME280;10650;51.528;6.748;2023-02-20T00:04:05;102411.50;;;7.72;82.81
20983;BME280;10650;51.528;6.748;2023-02-20T00:06:33;102419.56;;;7.75;82.74
20983;BME280;10650;51.528;6.748;2023-02-20T00:09:01;102411.53;;;7.73;82.77
20983;BME280;10650;51.528;6.748;2023-02-20T00:11:29;102415.09;;;7.72;82.94
20983;BME280;10650;51.528;6.748;2023-02-20T00:13:56;102403.56;;;7.73;82.66
20983;BME280;10650;51.528;6.748;2023-02-20T00:16:24;102395.50;;;7.70;83.03
20983;BME280;10650;51.528;6.748;2023-02-20T00:18:53;102398.16;;;7.70;83.09
20983;BME280;10650;51.528;6.748;2023-02-20T00:21:21;102400.75;;;7.67;83.45
20983;BME280;10650;51.528;6.748;2023-02-20T00:23:49;102405.34;;;7.73;83.56
20983;BME280;10650;51.528;6.748;2023-02-20T00:26:17;102393.97;;;7.78;83.79
20983;BME280;10650;51.528;6.748;2023-02-20T00:28:44;102400.22;;;7.80;83.43
20983;BME280;10650;51.528;6.748;2023-02-20T00:31:14;102394.94;;;7.82;83.25
20983;BME280;10650;51.528;6.748;2023-02-20T00:33:42;102394.91;;;7.80;83.42
20983;BME280;10650;51.528;6.748;2023-02-20T00:36:15;102388.72;;;7.82;84.01
20983;BME280;10650;51.528;6.748;2023-02-20T00:38:44;102386.91;;;7.80;83.69
20983;BME280;10650;51.528;6.748;2023-02-20T00:41:13;102380.66;;;7.78;83.97
20983;BME280;10650;51.528;6.748;2023-02-20T00:43:41;102380.75;;;7.82;83.98
20983;BME280;10650;51.528;6.748;2023-02-20T00:46:10;102377.31;;;7.86;83.86
20983;BME280;10650;51.528;6.748;2023-02-20T00:48:38;102366.63;;;7.84;84.09
20983;BME280;10650;51.528;6.748;2023-02-20T00:51:06;102370.19;;;7.85;83.94
20983;BME280;10650;51.528;6.748;2023-02-20T00:53:35;102373.78;;;7.85;83.83
20983;BME280;10650;51.528;6.748;2023-02-20T00:56:03;102352.53;;;7.87;83.87
20983;BME280;10650;51.528;6.748;2023-02-20T00:58:31;102344.53;;;7.87;84.52
20983;BME280;10650;51.528;6.748;2023-02-20T01:00:59;102352.56;;;7.88;84.27
20983;BME280;10650;51.528;6.748;2023-02-20T01:03:27;102343.53;;;7.83;84.16
20983;BME280;10650;51.528;6.748;2023-02-20T01:05:55;102328.53;;;7.85;84.43
20983;BME280;10650;51.528;6.748;2023-02-20T01:08:22;102324.78;;;7.78;84.58
20983;BME280;10650;51.528;6.748;2023-02-20T01:10:52;102319.47;;;7.78;84.45
20983;BME280;10650;51.528;6.748;2023-02-20T01:13:19;102317.66;;;7.77;84.47
20983;BME280;10650;51.528;6.748;2023-02-20T01:15:47;102307.81;;;7.75;84.33
20983;BME280;10650;51.528;6.748;2023-02-20T01:18:15;102317.75;;;7.80;84.05
20983;BME280;10650;51.528;6.748;2023-02-20T01:20:43;102315.06;;;7.80;84.15
20983;BME280;10650;51.528;6.748;2023-02-20T01:23:10;102305.22;;;7.76;84.26
20983;BME280;10650;51.528;6.748;2023-02-20T01:25:38;102307.88;;;7.76;84.21
20983;BME280;10650;51.528;6.748;2023-02-20T01:28:07;102326.56;;;7.78;83.98
20983;BME280;10650;51.528;6.748;2023-02-20T01:30:37;102323.03;;;7.79;83.97
20983;BME280;10650;51.528;6.748;2023-02-20T01:33:04;102322.19;;;7.80;83.88
20983;BME280;10650;51.528;6.748;2023-02-20T01:35:32;102331.94;;;7.79;83.91
20983;BME280;10650;51.528;6.748;2023-02-20T01:38:00;102323.06;;;7.80;83.67
20983;BME280;10650;51.528;6.748;2023-02-20T01:40:32;102323.06;;;7.80;84.22
20983;BME280;10650;51.528;6.748;2023-02-20T01:43:02;102322.22;;;7.82;83.80
20983;BME280;10650;51.528;6.748;2023-02-20T01:45:36;102318.69;;;7.83;83.85
20983;BME280;10650;51.528;6.748;2023-02-20T01:48:05;102320.47;;;7.84;83.52
20983;BME280;10650;51.528;6.748;2023-02-20T01:50:36;102309.78;;;7.82;83.10
20983;BME280;10650;51.528;6.748;2023-02-20T01:53:07;102300.94;;;7.82;83.58
20983;BME280;10650;51.528;6.748;2023-02-20T01:55:39;102303.66;;;7.85;83.77
20983;BME280;10650;51.528;6.748;2023-02-20T01:58:11;102305.34;;;7.81;83.46
20983;BME280;10650;51.528;6.748;2023-02-20T02:00:41;102307.06;;;7.79;83.47
20983;BME280;10650;51.528;6.748;2023-02-20T02:03:13;102306.09;;;7.75;83.32
20983;BME280;10650;51.528;6.748;2023-02-20T02:05:45;102287.41;;;7.74;83.67
20983;BME280;10650;51.528;6.748;2023-02-20T02:08:15;102279.41;;;7.72;83.72
20983;BME280;10650;51.528;6.748;2023-02-20T02:10:49;102280.25;;;7.71;83.60
20983;BME280;10650;51.528;6.748;2023-02-20T02:13:19;102272.16;;;7.67;83.36
20983;BME280;10650;51.528;6.748;2023-02-20T02:15:51;102264.91;;;7.61;83.70
20983;BME280;10650;51.528;6.748;2023-02-20T02:18:35;102251.44;;;7.56;83.87
20983;BME280;10650;51.528;6.748;2023-02-20T02:24:47;102246.06;;;7.53;84.79
20983;BME280;10650;51.528;6.748;2023-02-20T02:27:41;102232.75;;;7.53;84.60
20983;BME280;10650;51.528;6.748;2023-02-20T02:36:37;102218.38;;;7.45;84.52
20983;BME280;10650;51.528;6.748;2023-02-20T02:39:14;102223.72;;;7.47;84.86
20983;BME280;10650;51.528;6.748;2023-02-20T02:41:50;102216.59;;;7.45;85.12
20983;BME280;10650;51.528;6.748;2023-02-20T02:44:23;102227.19;;;7.44;85.35
20983;BME280;10650;51.528;6.748;2023-02-20T02:46:56;102214.72;;;7.41;85.08
20983;BME280;10650;51.528;6.748;2023-02-20T02:49:28;102219.94;;;7.38;84.94
20983;BME280;10650;51.528;6.748;2023-02-20T02:52:02;102210.25;;;7.40;85.28
20983;BME280;10650;51.528;6.748;2023-02-20T02:54:30;102226.13;;;7.37;85.11
20983;BME280;10650;51.528;6.748;2023-02-20T02:57:18;102210.09;;;7.34;85.32
20983;BME280;10650;51.528;6.748;2023-02-20T02:59:49;102216.28;;;7.35;85.05
20983;BME280;10650;51.528;6.748;2023-02-20T03:02:21;102203.91;;;7.35;84.78
20983;BME280;10650;51.528;6.748;2023-02-20T03:04:51;102186.16;;;7.34;85.18
20983;BME280;10650;51.528;6.748;2023-02-20T03:07:22;102186.22;;;7.37;85.11
20983;BME280;10650;51.528;6.748;2023-02-20T03:09:53;102183.41;;;7.31;85.33
20983;BME280;10650;51.528;6.748;2023-02-20T03:12:23;102183.41;;;7.31;85.48
20983;BME280;10650;51.528;6.748;2023-02-20T03:14:57;102179.06;;;7.35;85.19
20983;BME280;10650;51.528;6.748;2023-02-20T03:17:47;102189.78;;;7.38;85.28
20983;BME280;10650;51.528;6.748;2023-02-20T03:20:19;102189.84;;;7.39;85.51
20983;BME280;10650;51.528;6.748;2023-02-20T03:22:52;102190.78;;;7.41;85.14
20983;BME280;10650;51.528;6.748;2023-02-20T03:25:21;102183.56;;;7.37;85.00
20983;BME280;10650;51.528;6.748;2023-02-20T03:27:54;102183.50;;;7.34;85.20
20983;BME280;10650;51.528;6.748;2023-02-20T03:30:27;102177.09;;;7.27;85.25
20983;BME280;10650;51.528;6.748;2023-02-20T03:32:58;102176.25;;;7.28;85.33
20983;BME280;10650;51.528;6.748;2023-02-20T03:35:47;102178.78;;;7.24;85.26
20983;BME280;10650;51.528;6.748;2023-02-20T03:38:36;102175.22;;;7.23;85.53
20983;BME280;10650;51.528;6.748;2023-02-20T03:41:24;102174.31;;;7.23;85.43
20983;BME280;10650;51.528;6.748;2023-02-20T03:44:13;102171.47;;;7.15;85.53
20983;BME280;10650;51.528;6.748;2023-02-20T03:46:43;102182.91;;;7.13;85.97
20983;BME280;10650;51.528;6.748;2023-02-20T03:49:14;102180.31;;;7.16;85.96
20983;BME280;10650;51.528;6.748;2023-02-20T03:51:44;102183.84;;;7.15;85.88
20983;BME280;10650;51.528;6.748;2023-02-20T03:54:13;102180.38;;;7.17;85.82
20983;BME280;10650;51.528;6.748;2023-02-20T03:56:43;102178.56;;;7.16;85.58
20983;BME280;10650;51.528;6.748;2023-02-20T03:59:21;102179.41;;;7.14;85.85
20983;BME280;10650;51.528;6.748;2023-02-20T04:01:53;102181.94;;;7.10;86.10
20983;BME280;10650;51.528;6.748;2023-02-20T04:04:27;102173.94;;;7.09;85.94
20983;BME280;10650;51.528;6.748;2023-02-20T04:06:59;102169.44;;;7.06;86.09
20983;BME280;10650;51.528;6.748;2023-02-20T04:09:32;102172.09;;;7.06;85.92
20983;BME280;10650;51.528;6.748;2023-02-20T04:12:05;102173.00;;;7.07;86.00
20983;BME280;10650;51.528;6.748;2023-02-20T04:14:37;102172.03;;;7.05;86.16
20983;BME280;10650;51.528;6.748;2023-02-20T04:17:09;102177.47;;;7.08;86.07
20983;BME280;10650;51.528;6.748;2023-02-20T04:19:40;102174.75;;;7.06;85.99
20983;BME280;10650;51.528;6.748;2023-02-20T04:22:12;102172.97;;;7.05;86.01
20983;BME280;10650;51.528;6.748;2023-02-20T04:24:45;102170.31;;;7.05;85.85
20983;BME280;10650;51.528;6.748;2023-02-20T04:27:15;102178.28;;;7.05;86.25
20983;BME280;10650;51.528;6.748;2023-02-20T04:29:43;102181.78;;;7.04;86.09
20983;BME280;10650;51.528;6.748;2023-02-20T04:32:10;102180.88;;;7.04;86.06
20983;BME280;10650;51.528;6.748;2023-02-20T04:34:38;102185.31;;;7.05;85.93
20983;BME280;10650;51.528;6.748;2023-02-20T04:37:09;102180.00;;;7.05;85.83
20983;BME280;10650;51.528;6.748;2023-02-20T04:39:37;102188.09;;;7.08;86.20
20983;BME280;10650;51.528;6.748;2023-02-20T04:42:07;102183.72;;;7.10;86.01
20983;BME280;10650;51.528;6.748;2023-02-20T04:44:34;102187.44;;;7.17;86.05
20983;BME280;10650;51.528;6.748;2023-02-20T04:47:05;102188.41;;;7.20;85.55
20983;BME280;10650;51.528;6.748;2023-02-20T04:49:33;102180.50;;;7.22;85.89
20983;BME280;10650;51.528;6.748;2023-02-20T04:52:01;102180.63;;;7.26;85.58
20983;BME280;10650;51.528;6.748;2023-02-20T04:54:28;102171.81;;;7.29;85.65
20983;BME280;10650;51.528;6.748;2023-02-20T04:56:56;102173.63;;;7.30;85.42
20983;BME280;10650;51.528;6.748;2023-02-20T04:59:25;102173.59;;;7.28;85.26
20983;BME280;10650;51.528;6.748;2023-02-20T05:01:53;102157.63;;;7.28;85.40
20983;BME280;10650;51.528;6.748;2023-02-20T05:04:21;102162.16;;;7.31;85.29
20983;BME280;10650;51.528;6.748;2023-02-20T05:06:52;102155.09;;;7.33;85.06
20983;BME280;10650;51.528;6.748;2023-02-20T05:09:20;102162.22;;;7.34;85.15
20983;BME280;10650;51.528;6.748;2023-02-20T05:11:48;102156.84;;;7.31;85.10
20983;BME280;10650;51.528;6.748;2023-02-20T05:14:16;102149.72;;;7.30;85.24
20983;BME280;10650;51.528;6.748;2023-02-20T05:16:46;102158.63;;;7.32;85.42
20983;BME280;10650;51.528;6.748;2023-02-20T05:19:14;102156.94;;;7.36;85.45
20983;BME280;10650;51.528;6.748;2023-02-20T05:21:43;102166.66;;;7.34;85.21
20983;BME280;10650;51.528;6.748;2023-02-20T05:24:28;102155.09;;;7.33;85.38
20983;BME280;10650;51.528;6.748;2023-02-20T05:26:58;102151.47;;;7.30;85.40
20983;BME280;10650;51.528;6.748;2023-02-20T05:29:26;102148.03;;;7.34;85.56
20983;BME280;10650;51.528;6.748;2023-02-20T05:31:55;102150.81;;;7.38;85.32
20983;BME280;10650;51.528;6.748;2023-02-20T05:34:23;102148.25;;;7.41;85.26
20983;BME280;10650;51.528;6.748;2023-02-20T05:36:51;102141.16;;;7.42;85.15
20983;BME280;10650;51.528;6.748;2023-02-20T05:39:19;102143.84;;;7.43;85.24
20983;BME280;10650;51.528;6.748;2023-02-20T05:41:48;102154.41;;;7.40;85.38
20983;BME280;10650;51.528;6.748;2023-02-20T05:44:15;102143.72;;;7.39;84.99
20983;BME280;10650;51.528;6.748;2023-02-20T05:46:43;102144.53;;;7.36;85.34
20983;BME280;10650;51.528;6.748;2023-02-20T05:49:12;102135.75;;;7.39;85.58
20983;BME280;10650;51.528;6.748;2023-02-20T05:51:40;102125.13;;;7.39;85.33
20983;BME280;10650;51.528;6.748;2023-02-20T05:54:08;102130.47;;;7.40;85.41
20983;BME280;10650;51.528;6.748;2023-02-20T05:56:40;102135.72;;;7.37;85.88
20983;BME280;10650;51.528;6.748;2023-02-20T05:59:08;102135.59;;;7.33;85.39
20983;BME280;10650;51.528;6.748;2023-02-20T06:01:36;102136.69;;;7.39;86.01
20983;BME280;10650;51.528;6.748;2023-02-20T06:04:04;102137.53;;;7.38;85.70
20983;BME280;10650;51.528;6.748;2023-02-20T06:06:34;102142.81;;;7.37;85.29
20983;BME280;10650;51.528;6.748;2023-02-20T06:09:03;102134.75;;;7.34;85.84
20983;BME280;10650;51.528;6.748;2023-02-20T06:11:36;102138.19;;;7.30;85.60
20983;BME280;10650;51.528;6.748;2023-02-20T06:14:05;102147.09;;;7.32;85.64
20983;BME280;10650;51.528;6.748;2023-02-20T06:16:34;102154.09;;;7.28;85.64
20983;BME280;10650;51.528;6.748;2023-02-20T06:19:03;102161.22;;;7.31;86.20
20983;BME280;10650;51.528;6.748;2023-02-20T06:21:33;102158.41;;;7.24;86.18
20983;BME280;10650;51.528;6.748;2023-02-20T06:24:03;102166.44;;;7.26;86.23
20983;BME280;10650;51.528;6.748;2023-02-20T06:26:31;102167.38;;;7.28;86.32
20983;BME280;10650;51.528;6.748;2023-02-20T06:28:58;102170.09;;;7.30;85.99
20983;BME280;10650;51.528;6.748;2023-02-20T06:31:27;102166.50;;;7.29;86.09
20983;BME280;10650;51.528;6.748;2023-02-20T06:33:54;102174.69;;;7.35;86.07
20983;BME280;10650;51.528;6.748;2023-02-20T06:36:24;102166.63;;;7.32;86.33
20983;BME280;10650;51.528;6.748;2023-02-20T06:38:54;102168.34;;;7.32;85.98
20983;BME280;10650;51.528;6.748;2023-02-20T06:41:23;102186.22;;;7.37;85.78
20983;BME280;10650;51.528;6.748;2023-02-20T06:43:51;102176.38;;;7.33;85.68
20983;BME280;10650;51.528;6.748;2023-02-20T06:46:20;102180.03;;;7.37;85.75
20983;BME280;10650;51.528;6.748;2023-02-20T06:48:50;102174.72;;;7.37;85.70
20983;BME280;10650;51.528;6.748;2023-02-20T06:51:19;102177.34;;;7.35;85.83
20983;BME280;10650;51.528;6.748;2023-02-20T06:53:47;102165.94;;;7.39;85.83
20983;BME280;10650;51.528;6.748;2023-02-20T06:56:19;102157.00;;;7.37;85.61
20983;BME280;10650;51.528;6.748;2023-02-20T06:58:48;102167.66;;;7.39;85.87
20983;BME280;10650;51.528;6.748;2023-02-20T07:01:18;102163.19;;;7.38;86.02
20983;BME280;10650;51.528;6.748;2023-02-20T07:03:49;102164.22;;;7.43;85.72
20983;BME280;10650;51.528;6.748;2023-02-20T07:06:18;102167.69;;;7.40;85.44
20983;BME280;10650;51.528;6.748;2023-02-20T07:08:46;102166.78;;;7.38;85.35
20983;BME280;10650;51.528;6.748;2023-02-20T07:11:17;102176.63;;;7.42;86.33
20983;BME280;10650;51.528;6.748;2023-02-20T07:13:45;102175.81;;;7.45;86.21
20983;BME280;10650;51.528;6.748;2023-02-20T07:16:13;102174.06;;;7.45;86.17
20983;BME280;10650;51.528;6.748;2023-02-20T07:18:42;102174.91;;;7.44;86.24
20983;BME280;10650;51.528;6.748;2023-02-20T07:21:10;102169.66;;;7.48;86.15
20983;BME280;10650;51.528;6.748;2023-02-20T07:23:37;102174.25;;;7.53;86.25
20983;BME280;10650;51.528;6.748;2023-02-20T07:26:05;102172.59;;;7.57;85.87
20983;BME280;10650;51.528;6.748;2023-02-20T07:28:35;102175.34;;;7.61;86.17
20983;BME280;10650;51.528;6.748;2023-02-20T07:31:03;102165.72;;;7.65;85.76
20983;BME280;10650;51.528;6.748;2023-02-20T07:33:31;102160.47;;;7.68;85.87
20983;BME280;10650;51.528;6.748;2023-02-20T07:35:59;102166.78;;;7.73;85.59
20983;BME280;10650;51.528;6.748;2023-02-20T07:38:27;102175.78;;;7.78;85.51
20983;BME280;10650;51.528;6.748;2023-02-20T07:40:54;102167.75;;;7.75;84.87
20983;BME280;10650;51.528;6.748;2023-02-20T07:43:22;102163.19;;;7.71;85.14
20983;BME280;10650;51.528;6.748;2023-02-20T07:45:51;102168.63;;;7.76;85.15
20983;BME280;10650;51.528;6.748;2023-02-20T07:48:19;102170.50;;;7.80;85.40
20983;BME280;10650;51.528;6.748;2023-02-20T07:50:47;102169.69;;;7.83;85.24
20983;BME280;10650;51.528;6.748;2023-02-20T07:53:16;102175.22;;;7.92;85.08
20983;BME280;10650;51.528;6.748;2023-02-20T07:55:45;102178.88;;;7.95;84.64
20983;BME280;10650;51.528;6.748;2023-02-20T07:58:16;102179.81;;;7.97;84.61
20983;BME280;10650;51.528;6.748;2023-02-20T08:00:44;102178.97;;;7.99;84.78
20983;BME280;10650;51.528;6.748;2023-02-20T08:03:13;102168.31;;;7.99;84.27
20983;BME280;10650;51.528;6.748;2023-02-20T08:05:43;102169.31;;;8.04;84.29
20983;BME280;10650;51.528;6.748;2023-02-20T08:08:15;102163.19;;;8.08;84.37
20983;BME280;10650;51.528;6.748;2023-02-20T08:10:44;102161.53;;;8.11;84.55
20983;BME280;10650;51.528;6.748;2023-02-20T08:13:14;102161.59;;;8.14;84.35
20983;BME280;10650;51.528;6.748;2023-02-20T08:15:43;102161.63;;;8.16;84.56
20983;BME280;10650;51.528;6.748;2023-02-20T08:18:13;102167.00;;;8.19;84.14
20983;BME280;10650;51.528;6.748;2023-02-20T08:20:49;102171.53;;;8.22;83.72
20983;BME280;10650;51.528;6.748;2023-02-20T08:23:20;102167.19;;;8.25;84.07
20983;BME280;10650;51.528;6.748;2023-02-20T08:25:49;102167.22;;;8.27;83.90
20983;BME280;10650;51.528;6.748;2023-02-20T08:28:18;102169.94;;;8.30;83.62
20983;BME280;10650;51.528;6.748;2023-02-20T08:30:46;102165.50;;;8.30;83.00
20983;BME280;10650;51.528;6.748;2023-02-20T08:33:15;102163.78;;;8.32;83.81
20983;BME280;10650;51.528;6.748;2023-02-20T08:35:44;102159.41;;;8.36;83.24
20983;BME280;10650;51.528;6.748;2023-02-20T08:38:26;102158.56;;;8.37;83.42
20983;BME280;10650;51.528;6.748;2023-02-20T08:40:54;102157.78;;;8.41;83.42
20983;BME280;10650;51.528;6.748;2023-02-20T08:43:23;102162.28;;;8.44;83.43
20983;BME280;10650;51.528;6.748;2023-02-20T08:45:53;102157.88;;;8.44;83.03
20983;BME280;10650;51.528;6.748;2023-02-20T08:48:23;102160.53;;;8.44;83.16
20983;BME280;10650;51.528;6.748;2023-02-20T08:50:51;102156.03;;;8.43;82.58
20983;BME280;10650;51.528;6.748;2023-02-20T08:53:19;102155.09;;;8.40;82.59
20983;BME280;10650;51.528;6.748;2023-02-20T08:55:47;102154.41;;;8.48;82.65
20983;BME280;10650;51.528;6.748;2023-02-20T08:58:20;102162.28;;;8.44;82.88
20983;BME280;10650;51.528;6.748;2023-02-20T09:00:49;102159.75;;;8.48;83.45
20983;BME280;10650;51.528;6.748;2023-02-20T09:03:19;102156.25;;;8.51;82.94
20983;BME280;10650;51.528;6.748;2023-02-20T09:05:51;102155.38;;;8.52;83.15
20983;BME280;10650;51.528;6.748;2023-02-20T09:08:19;102151.06;;;8.57;82.48
20983;BME280;10650;51.528;6.748;2023-02-20T09:10:47;102163.50;;;8.57;82.75
20983;BME280;10650;51.528;6.748;2023-02-20T09:13:15;102160.00;;;8.61;82.60
20983;BME280;10650;51.528;6.748;2023-02-20T09:15:45;102165.41;;;8.64;82.59
20983;BME280;10650;51.528;6.748;2023-02-20T09:18:13;102155.72;;;8.68;82.33
20983;BME280;10650;51.528;6.748;2023-02-20T09:20:42;102165.63;;;8.75;82.28
20983;BME280;10650;51.528;6.748;2023-02-20T09:23:14;102162.13;;;8.77;81.88
20983;BME280;10650;51.528;6.748;2023-02-20T09:25:43;102157.66;;;8.76;82.26
20983;BME280;10650;51.528;6.748;2023-02-20T09:28:14;102149.56;;;8.70;82.02
20983;BME280;10650;51.528;6.748;2023-02-20T09:30:42;102147.78;;;8.71;82.23
20983;BME280;10650;51.528;6.748;2023-02-20T09:33:10;102147.78;;;8.71;82.61
20983;BME280;10650;51.528;6.748;2023-02-20T09:35:38;102136.22;;;8.70;82.28
20983;BME280;10650;51.528;6.748;2023-02-20T09:38:08;102139.75;;;8.69;82.66
20983;BME280;10650;51.528;6.748;2023-02-20T09:40:38;102137.09;;;8.69;82.46
20983;BME280;10650;51.528;6.748;2023-02-20T09:43:15;102133.56;;;8.70;82.03
20983;BME280;10650;51.528;6.748;2023-02-20T09:45:53;102132.72;;;8.71;82.33
20983;BME280;10650;51.528;6.748;2023-02-20T09:48:33;102130.16;;;8.77;82.40
20983;BME280;10650;51.528;6.748;2023-02-20T09:51:11;102139.88;;;8.75;82.17
20983;BME280;10650;51.528;6.748;2023-02-20T09:53:49;102144.41;;;8.79;82.24
20983;BME280;10650;51.528;6.748;2023-02-20T09:56:21;102139.28;;;8.89;82.25
20983;BME280;10650;51.528;6.748;2023-02-20T09:58:54;102119.75;;;8.90;82.38
20983;BME280;10650;51.528;6.748;2023-02-20T10:01:26;102127.16;;;9.05;81.69
20983;BME280;10650;51.528;6.748;2023-02-20T10:03:56;102130.84;;;9.11;81.34
20983;BME280;10650;51.528;6.748;2023-02-20T10:06:29;102126.41;;;9.13;81.57
20983;BME280;10650;51.528;6.748;2023-02-20T10:08:58;102132.00;;;9.26;81.35
20983;BME280;10650;51.528;6.748;2023-02-20T10:11:37;102129.38;;;9.29;81.71
20983;BME280;10650;51.528;6.748;2023-02-20T10:14:25;102118.03;;;9.41;80.91
20983;BME280;10650;51.528;6.748;2023-02-20T10:17:02;102112.78;;;9.45;80.55
20983;BME280;10650;51.528;6.748;2023-02-20T10:19:42;102113.75;;;9.49;80.73
20983;BME280;10650;51.528;6.748;2023-02-20T10:22:17;102118.25;;;9.53;80.66
20983;BME280;10650;51.528;6.748;2023-02-20T10:24:56;102123.63;;;9.55;80.42
20983;BME280;10650;51.528;6.748;2023-02-20T10:27:38;102122.69;;;9.52;80.26
20983;BME280;10650;51.528;6.748;2023-02-20T10:30:12;102115.66;;;9.58;80.64
20983;BME280;10650;51.528;6.748;2023-02-20T10:32:45;102117.59;;;9.66;80.10
20983;BME280;10650;51.528;6.748;2023-02-20T10:35:17;102109.53;;;9.63;80.28
20983;BME280;10650;51.528;6.748;2023-02-20T10:37:48;102122.00;;;9.63;80.75
20983;BME280;10650;51.528;6.748;2023-02-20T10:40:22;102123.66;;;9.58;80.05
20983;BME280;10650;51.528;6.748;2023-02-20T10:42:59;102124.53;;;9.57;80.17
20983;BME280;10650;51.528;6.748;2023-02-20T10:45:38;102106.78;;;9.59;80.29
20983;BME280;10650;51.528;6.748;2023-02-20T10:48:10;102095.16;;;9.55;79.75
20983;BME280;10650;51.528;6.748;2023-02-20T10:50:46;102097.81;;;9.53;79.93
20983;BME280;10650;51.528;6.748;2023-02-20T10:53:23;102110.38;;;9.61;80.23
20983;BME280;10650;51.528;6.748;2023-02-20T10:55:59;102097.06;;;9.64;80.19
20983;BME280;10650;51.528;6.748;2023-02-20T10:58:36;102086.47;;;9.68;80.29
20983;BME280;10650;51.528;6.748;2023-02-20T11:01:08;102087.44;;;9.72;79.62
20983;BME280;10650;51.528;6.748;2023-02-20T11:03:42;102076.69;;;9.67;79.33
20983;BME280;10650;51.528;6.748;2023-02-20T11:06:15;102092.72;;;9.69;79.29
20983;BME280;10650;51.528;6.748;2023-02-20T11:08:43;102092.63;;;9.63;79.66
20983;BME280;10650;51.528;6.748;2023-02-20T11:11:24;102091.72;;;9.62;79.89
20983;BME280;10650;51.528;6.748;2023-02-20T11:13:54;102106.03;;;9.66;80.11
20983;BME280;10650;51.528;6.748;2023-02-20T11:16:28;102120.22;;;9.65;79.63
20983;BME280;10650;51.528;6.748;2023-02-20T11:19:05;102114.91;;;9.65;80.15
20983;BME280;10650;51.528;6.748;2023-02-20T11:21:39;102113.03;;;9.61;80.33
20983;BME280;10650;51.528;6.748;2023-02-20T11:24:28;102094.38;;;9.62;79.85
20983;BME280;10650;51.528;6.748;2023-02-20T11:27:02;102101.50;;;9.62;79.90
20983;BME280;10650;51.528;6.748;2023-02-20T11:29:41;102101.44;;;9.57;80.03
20983;BME280;10650;51.528;6.748;2023-02-20T11:32:24;102105.97;;;9.63;80.28
20983;BME280;10650;51.528;6.748;2023-02-20T11:35:19;102103.34;;;9.66;79.78
20983;BME280;10650;51.528;6.748;2023-02-20T11:37:49;102097.06;;;9.64;79.93
20983;BME280;10650;51.528;6.748;2023-02-20T11:40:26;102087.38;;;9.67;80.40
20983;BME280;10650;51.528;6.748;2023-02-20T11:42:55;102098.03;;;9.66;80.55
20983;BME280;10650;51.528;6.748;2023-02-20T11:45:26;102100.72;;;9.67;80.30
20983;BME280;10650;51.528;6.748;2023-02-20T11:48:09;102103.41;;;9.69;80.31
20983;BME280;10650;51.528;6.748;2023-02-20T11:50:38;102103.44;;;9.72;80.39
20983;BME280;10650;51.528;6.748;2023-02-20T11:53:16;102120.25;;;9.66;80.55
20983;BME280;10650;51.528;6.748;2023-02-20T11:55:45;102106.03;;;9.67;80.45
20983;BME280;10650;51.528;6.748;2023-02-20T11:58:26;102114.06;;;9.67;80.38
20983;BME280;10650;51.528;6.748;2023-02-20T12:00:56;102118.44;;;9.65;80.67
20983;BME280;10650;51.528;6.748;2023-02-20T12:03:26;102112.31;;;9.71;80.34
20983;BME280;10650;51.528;6.748;2023-02-20T12:05:55;102079.34;;;9.66;80.15
20983;BME280;10650;51.528;6.748;2023-02-20T12:08:33;102080.25;;;9.68;80.82
20983;BME280;10650;51.528;6.748;2023-02-20T12:11:05;102102.47;;;9.68;80.61
20983;BME280;10650;51.528;6.748;2023-02-20T12:13:37;102102.47;;;9.67;80.51
20983;BME280;10650;51.528;6.748;2023-02-20T12:16:21;102071.44;;;9.74;80.98
20983;BME280;10650;51.528;6.748;2023-02-20T12:19:00;102066.16;;;9.78;80.68
20983;BME280;10650;51.528;6.748;2023-02-20T12:21:38;102064.44;;;9.80;80.85
20983;BME280;10650;51.528;6.748;2023-02-20T12:24:23;102075.91;;;9.73;80.78
20983;BME280;10650;51.528;6.748;2023-02-20T12:26:56;102059.84;;;9.70;80.50
20983;BME280;10650;51.528;6.748;2023-02-20T12:29:37;102035.88;;;9.73;81.13
20983;BME280;10650;51.528;6.748;2023-02-20T12:32:14;102040.31;;;9.74;81.28
20983;BME280;10650;51.528;6.748;2023-02-20T12:34:57;102041.25;;;9.78;81.13
20983;BME280;10650;51.528;6.748;2023-02-20T12:37:36;102035.09;;;9.82;81.03
20983;BME280;10650;51.528;6.748;2023-02-20T12:40:21;102032.41;;;9.80;80.87
20983;BME280;10650;51.528;6.748;2023-02-20T12:42:58;102028.97;;;9.87;80.80
20983;BME280;10650;51.528;6.748;2023-02-20T12:45:37;102036.94;;;9.86;80.91
20983;BME280;10650;51.528;6.748;2023-02-20T12:48:21;102038.63;;;9.81;81.36
20983;BME280;10650;51.528;6.748;2023-02-20T12:50:59;102011.97;;;9.82;81.51
20983;BME280;10650;51.528;6.748;2023-02-20T12:53:42;101984.44;;;9.86;81.16
20983;BME280;10650;51.528;6.748;2023-02-20T12:56:23;101991.59;;;9.89;81.19
20983;BME280;10650;51.528;6.748;2023-02-20T12:58:59;101982.75;;;9.92;81.40
20983;BME280;10650;51.528;6.748;2023-02-20T13:01:33;102002.41;;;10.00;80.97
20983;BME280;10650;51.528;6.748;2023-02-20T13:04:19;101984.66;;;10.00;81.64
20983;BME280;10650;51.528;6.748;2023-02-20T13:06:54;101979.28;;;9.99;81.24
20983;BME280;10650;51.528;6.748;2023-02-20T13:09:27;101981.88;;;9.94;81.47
20983;BME280;10650;51.528;6.748;2023-02-20T13:12:01;102003.19;;;9.91;81.12
20983;BME280;10650;51.528;6.748;2023-02-20T13:14:41;101992.47;;;9.88;81.52
20983;BME280;10650;51.528;6.748;2023-02-20T13:17:23;101999.56;;;9.84;81.66
20983;BME280;10650;51.528;6.748;2023-02-20T13:19:59;101980.97;;;9.94;81.94
20983;BME280;10650;51.528;6.748;2023-02-20T13:22:30;101983.59;;;9.89;81.36
20983;BME280;10650;51.528;6.748;2023-02-20T13:25:34;101995.19;;;9.91;81.90
20983;BME280;10650;51.528;6.748;2023-02-20T13:28:20;101985.38;;;9.89;81.67
20983;BME280;10650;51.528;6.748;2023-02-20T13:31:06;102003.22;;;9.93;82.00
20983;BME280;10650;51.528;6.748;2023-02-20T13:33:34;102000.50;;;9.90;81.83
20983;BME280;10650;51.528;6.748;2023-02-20T13:36:05;102003.97;;;9.84;82.47